Time;durP1;ratioP1;P1;durP2;ratioP2;P2;SDS_P1;SDS_P2;PMS_P1;PMS_P2;Temp;Humidity;BMP_temperature;BMP_pressure;BME280_temperature;BME280_humidity;BME280_pressure;Samples;Min_cycle;Max_cycle;Signal;HPM_P1;HPM_P2
2020/12/05 00:00:36;;;;;;;20.17;15.53;;;;;;;9.55;52.82;100830.73;1768142;80;21239;-65
2020/12/05 00:03:04;;;;;;;21.25;16.20;;;;;;;9.58;52.84;100833.59;1693747;84;21175;-64
2020/12/05 00:05:32;;;;;;;20.82;16.00;;;;;;;9.57;52.83;100836.74;1687586;83;21132;-66
2020/12/05 00:07:59;;;;;;;20.92;15.70;;;;;;;9.55;52.88;100846.66;1746456;80;21165;-63
2020/12/05 00:10:27;;;;;;;21.73;15.65;;;;;;;9.57;52.87;100841.22;1752668;80;22064;-65
2020/12/05 00:12:55;;;;;;;20.55;15.18;;;;;;;9.56;52.83;100837.73;1753528;80;21167;-64
2020/12/05 00:15:22;;;;;;;21.75;15.40;;;;;;;9.57;52.85;100849.17;1755894;80;21413;-66
2020/12/05 00:17:49;;;;;;;18.20;14.45;;;;;;;9.55;52.85;100847.98;1745583;80;21834;-64
2020/12/05 00:20:17;;;;;;;18.00;13.62;;;;;;;9.54;52.86;100849.44;1698970;83;21193;-64
2020/12/05 00:22:44;;;;;;;20.50;15.60;;;;;;;9.54;52.86;100848.11;1747534;80;21369;-64
2020/12/05 00:25:11;;;;;;;20.32;15.38;;;;;;;9.54;52.86;100851.63;1748893;80;21181;-63
2020/12/05 00:27:38;;;;;;;19.87;14.93;;;;;;;9.53;52.87;100857.89;1767434;80;21140;-64
2020/12/05 00:30:06;;;;;;;20.57;15.72;;;;;;;9.53;52.86;100853.08;1763213;80;21192;-64
2020/12/05 00:32:33;;;;;;;18.27;14.80;;;;;;;9.54;52.87;100853.41;1725125;82;21148;-64
2020/12/05 00:35:00;;;;;;;19.57;15.53;;;;;;;9.53;52.88;100852.58;1747152;80;21616;-64
2020/12/05 00:37:30;;;;;;;20.72;15.25;;;;;;;9.54;52.85;100850.76;1756212;80;21125;-64
2020/12/05 00:39:57;;;;;;;17.90;14.10;;;;;;;9.52;52.86;100853.57;1754118;80;21238;-65
2020/12/05 00:42:25;;;;;;;19.35;14.07;;;;;;;9.53;52.87;100854.40;1746577;80;21197;-65
2020/12/05 00:44:53;;;;;;;20.30;14.38;;;;;;;9.53;52.87;100854.40;1753180;80;21139;-62
2020/12/05 00:47:20;;;;;;;19.82;15.10;;;;;;;9.53;52.87;100845.95;1748187;80;23491;-63
2020/12/05 00:49:48;;;;;;;21.25;15.45;;;;;;;9.54;52.87;100850.76;1756460;80;21179;-63
2020/12/05 00:52:15;;;;;;;19.65;14.98;;;;;;;9.53;52.86;100853.91;1759686;80;21152;-63
2020/12/05 00:54:43;;;;;;;22.02;15.80;;;;;;;9.53;52.84;100860.54;1761447;80;21139;-63
2020/12/05 00:57:10;;;;;;;19.10;14.30;;;;;;;9.54;52.86;100864.02;1757191;80;21143;-64
2020/12/05 00:59:39;;;;;;;20.77;16.12;;;;;;;9.53;52.85;100862.36;1684956;82;21206;-62
2020/12/05 01:02:06;;;;;;;18.70;14.65;;;;;;;9.54;52.83;100858.72;1774451;80;21460;-63
2020/12/05 01:04:34;;;;;;;17.48;14.33;;;;;;;9.45;52.83;100847.95;1756398;80;21563;-63
2020/12/05 01:07:02;;;;;;;18.48;14.58;;;;;;;9.53;52.83;100855.23;1763173;80;21140;-63
2020/12/05 01:09:30;;;;;;;19.32;14.85;;;;;;;9.51;52.83;100845.73;1759729;80;21167;-64
2020/12/05 01:11:57;;;;;;;18.10;14.25;;;;;;;9.51;52.86;100842.59;1761030;80;21276;-63
2020/12/05 01:14:25;;;;;;;19.82;14.05;;;;;;;9.51;52.86;100842.59;1753829;80;21187;-63
2020/12/05 01:16:52;;;;;;;18.37;14.25;;;;;;;9.52;52.87;100839.44;1761638;80;21204;-63
2020/12/05 01:19:19;;;;;;;18.80;14.83;;;;;;;9.52;52.86;100846.08;1767426;80;21175;-63
2020/12/05 01:21:47;;;;;;;18.55;15.00;;;;;;;9.52;52.86;100849.59;1759648;80;22152;-63
2020/12/05 01:24:14;;;;;;;19.27;14.98;;;;;;;9.52;52.87;100846.94;1764659;80;21354;-62
2020/12/05 01:26:42;;;;;;;19.92;14.83;;;;;;;9.53;52.86;100849.93;1756972;80;21184;-64
2020/12/05 01:29:09;;;;;;;16.52;13.85;;;;;;;9.53;52.83;100848.60;1769207;80;21187;-63
2020/12/05 01:31:36;;;;;;;21.85;14.98;;;;;;;9.52;52.84;100838.98;1756312;80;21171;-65
2020/12/05 01:34:05;;;;;;;17.77;14.05;;;;;;;9.52;52.83;100835.00;1751431;80;21147;-64
2020/12/05 01:36:33;;;;;;;17.60;14.60;;;;;;;9.53;52.84;100842.47;1762608;80;21369;-65
2020/12/05 01:39:01;;;;;;;19.10;14.73;;;;;;;9.52;52.83;100843.42;1709462;83;21187;-66
2020/12/05 01:41:28;;;;;;;20.08;15.78;;;;;;;9.52;52.86;100852.70;1770216;80;21160;-65
2020/12/05 01:43:56;;;;;;;16.62;13.28;;;;;;;9.51;52.87;100849.72;1759721;80;21828;-65
2020/12/05 01:46:40;;;;;;;18.05;14.70;;;;;;;9.51;52.85;100857.18;1759356;80;21123;-66
2020/12/05 01:49:09;;;;;;;19.25;14.70;;;;;;;9.51;52.84;100846.57;1756356;80;22259;-66
2020/12/05 01:51:36;;;;;;;18.77;14.58;;;;;;;9.50;52.87;100850.68;1709541;83;21615;-64
2020/12/05 01:54:07;;;;;;;16.73;13.72;;;;;;;9.49;52.89;100853.83;1768651;80;21191;-66
2020/12/05 01:56:34;;;;;;;18.87;14.47;;;;;;;9.48;52.89;100848.16;1765728;80;21130;-65
2020/12/05 01:59:01;;;;;;;19.00;15.15;;;;;;;9.49;52.92;100850.34;1770710;80;21173;-66
2020/12/05 02:01:28;;;;;;;15.68;13.53;;;;;;;9.49;52.90;100851.66;1759400;80;21268;-64
2020/12/05 02:03:57;;;;;;;17.42;14.10;;;;;;;9.50;52.91;100850.68;1758204;80;21214;-64
2020/12/05 02:07:11;;;;;;;19.60;15.30;;;;;;;9.50;52.90;100848.02;1698590;83;22192;-64
2020/12/05 02:09:48;;;;;;;18.50;15.60;;;;;;;9.49;52.86;100842.38;1763946;80;21131;-64
2020/12/05 02:12:28;;;;;;;21.33;15.48;;;;;;;9.47;52.92;100843.01;1758440;80;21201;-63
2020/12/05 02:15:10;;;;;;;17.92;15.03;;;;;;;9.45;52.94;100854.58;1755653;80;21188;-64
2020/12/05 02:17:40;;;;;;;20.08;14.68;;;;;;;9.45;52.96;100846.62;1747077;80;21186;-65
2020/12/05 02:20:08;;;;;;;19.30;15.13;;;;;;;9.45;52.97;100852.41;1757892;80;21675;-64
2020/12/05 02:22:40;;;;;;;19.60;15.40;;;;;;;9.44;52.95;100857.36;1762094;80;22046;-63
2020/12/05 02:25:07;;;;;;;20.50;15.20;;;;;;;9.45;52.99;100859.05;1747394;80;21188;-62
2020/12/05 02:27:35;;;;;;;20.20;14.78;;;;;;;9.45;52.96;100858.55;1715768;82;21459;-63
2020/12/05 02:30:03;;;;;;;19.07;15.18;;;;;;;9.46;52.99;100856.73;1755907;80;21132;-63
2020/12/05 02:32:31;;;;;;;18.77;14.68;;;;;;;9.46;52.98;100856.73;1752283;80;21173;-64
2020/12/05 02:35:00;;;;;;;18.95;15.08;;;;;;;9.46;52.98;100859.38;1749096;80;21595;-64
2020/12/05 02:37:28;;;;;;;23.15;15.03;;;;;;;9.47;52.96;100860.25;1754512;80;21208;-64
2020/12/05 02:39:55;;;;;;;20.90;15.78;;;;;;;9.47;52.95;100862.41;1757482;80;21239;-63
2020/12/05 02:42:23;;;;;;;18.37;13.75;;;;;;;9.48;52.97;100865.89;1705856;84;21253;-62
2020/12/05 02:44:52;;;;;;;20.55;15.60;;;;;;;9.47;52.93;100866.88;1763254;80;21127;-63
2020/12/05 02:47:20;;;;;;;20.40;14.90;;;;;;;9.48;52.91;100871.20;1691990;83;21223;-63
2020/12/05 02:49:47;;;;;;;21.55;15.93;;;;;;;9.48;52.91;100874.68;1769557;80;21189;-63
2020/12/05 02:52:14;;;;;;;20.32;15.13;;;;;;;9.48;52.91;100875.17;1749029;80;23588;-65
2020/12/05 02:54:43;;;;;;;18.52;14.85;;;;;;;9.47;52.89;100879.64;1751151;80;21176;-65
2020/12/05 02:57:10;;;;;;;21.45;15.32;;;;;;;9.48;52.91;100860.58;1754273;80;21854;-65
2020/12/05 02:59:40;;;;;;;19.98;15.30;;;;;;;9.47;52.93;100876.99;1750698;80;21137;-65
2020/12/05 03:02:07;;;;;;;20.27;15.75;;;;;;;9.48;52.89;100868.55;1753486;80;22257;-65
2020/12/05 03:04:34;;;;;;;19.98;14.95;;;;;;;9.47;52.91;100869.53;1711997;83;21376;-64
2020/12/05 03:07:05;;;;;;;20.20;15.88;;;;;;;9.47;52.90;100876.16;1735074;82;21179;-64
2020/12/05 03:09:33;;;;;;;20.43;15.00;;;;;;;9.48;52.91;100877.33;1737821;82;21107;-65
2020/12/05 03:12:00;;;;;;;19.98;15.18;;;;;;;9.48;52.90;100873.84;1737203;82;21184;-65
2020/12/05 03:14:28;;;;;;;21.25;15.43;;;;;;;9.48;52.88;100880.48;1697411;83;21579;-66
2020/12/05 03:16:57;;;;;;;18.98;14.95;;;;;;;9.47;52.91;100879.64;1737085;82;21215;-65
2020/12/05 03:19:24;;;;;;;22.20;16.00;;;;;;;9.47;52.88;100871.69;1719780;82;21193;-66
2020/12/05 03:21:51;;;;;;;21.42;15.05;;;;;;;9.47;52.89;100876.99;1714598;83;21175;-66
2020/12/05 03:24:18;;;;;;;19.17;14.38;;;;;;;9.48;52.90;100875.17;1717935;83;21571;-64
2020/12/05 03:26:46;;;;;;;21.55;15.60;;;;;;;9.48;52.87;100872.52;1699654;83;21312;-64
2020/12/05 03:29:13;;;;;;;20.50;15.30;;;;;;;9.48;52.85;100876.50;1700724;83;21434;-64
2020/12/05 03:34:27;;;;;;;19.62;15.23;;;;;;;9.52;52.87;100873.47;1752654;79;28175;-65
2020/12/05 03:36:56;;;;;;;21.23;15.32;;;;;;;9.48;52.86;100869.38;1725979;82;21164;-64
2020/12/05 03:39:23;;;;;;;20.10;15.18;;;;;;;9.48;52.88;100874.68;1765517;81;21338;-64
2020/12/05 03:41:50;;;;;;;19.70;14.13;;;;;;;9.48;52.84;100871.20;1748861;81;21233;-64
2020/12/05 03:44:18;;;;;;;19.45;15.08;;;;;;;9.48;52.86;100866.72;1740261;81;21206;-64
2020/12/05 03:46:46;;;;;;;20.40;15.38;;;;;;;9.47;52.84;100871.69;1765581;81;21103;-64
2020/12/05 03:49:14;;;;;;;21.52;15.58;;;;;;;9.48;52.88;100867.22;1754770;81;21170;-64
2020/12/05 03:51:41;;;;;;;20.77;15.55;;;;;;;9.49;52.84;100871.56;1765116;81;22006;-65
2020/12/05 03:54:08;;;;;;;21.60;15.60;;;;;;;9.48;52.86;100870.70;1764553;81;21129;-64
2020/12/05 03:56:35;;;;;;;20.08;16.23;;;;;;;9.48;52.84;100872.02;1758578;81;21602;-64
2020/12/05 03:59:03;;;;;;;22.50;16.12;;;;;;;9.49;52.81;100882.17;1755758;81;21174;-65
2020/12/05 04:01:30;;;;;;;21.68;15.40;;;;;;;9.48;52.83;100872.52;1756955;81;21597;-65
2020/12/05 04:03:57;;;;;;;22.50;17.07;;;;;;;9.48;52.84;100868.55;1754787;81;21387;-65
2020/12/05 04:06:25;;;;;;;21.12;14.73;;;;;;;9.47;52.83;100865.06;1736201;81;21174;-65
2020/12/05 04:08:53;;;;;;;21.80;16.37;;;;;;;9.47;52.84;100888.93;1736356;81;21170;-65
2020/12/05 04:11:20;;;;;;;20.05;15.85;;;;;;;9.47;52.84;100886.28;1757805;81;21184;-65
2020/12/05 04:13:48;;;;;;;20.85;15.78;;;;;;;9.47;52.82;100881.47;1740990;81;21111;-65
2020/12/05 04:16:15;;;;;;;20.65;15.50;;;;;;;9.47;52.80;100874.84;1765839;81;21171;-68
2020/12/05 04:18:43;;;;;;;20.20;14.68;;;;;;;9.47;52.81;100883.63;1749607;81;21206;-65
2020/12/05 04:21:10;;;;;;;22.95;16.23;;;;;;;9.47;52.81;100877.48;1762240;81;21166;-65
2020/12/05 04:23:37;;;;;;;20.45;15.95;;;;;;;9.47;52.82;100882.30;1750222;81;21611;-65
2020/12/05 04:26:05;;;;;;;19.67;15.18;;;;;;;9.46;52.82;100880.61;1757677;81;21649;-64
2020/12/05 04:28:32;;;;;;;20.00;15.93;;;;;;;9.46;52.82;100880.61;1743102;81;22243;-64
2020/12/05 04:30:59;;;;;;;21.97;15.55;;;;;;;9.47;52.78;100873.51;1743753;81;21610;-65
2020/12/05 04:33:26;;;;;;;23.80;16.87;;;;;;;9.47;52.84;100870.86;1739380;81;22221;-64
2020/12/05 04:35:54;;;;;;;23.32;17.07;;;;;;;9.47;52.82;100874.84;1737645;82;21162;-65
2020/12/05 04:38:22;;;;;;;20.80;15.70;;;;;;;9.47;52.81;100870.36;1738449;82;21565;-64
2020/12/05 04:40:49;;;;;;;20.15;15.08;;;;;;;9.46;52.81;100873.97;1738933;82;23517;-64
2020/12/05 04:43:16;;;;;;;21.35;15.28;;;;;;;9.47;52.82;100875.66;1739123;82;21147;-65
2020/12/05 04:45:43;;;;;;;19.82;15.83;;;;;;;9.47;52.83;100873.51;1738559;82;21182;-64
2020/12/05 04:48:11;;;;;;;19.45;15.75;;;;;;;9.46;52.83;100881.93;1736918;82;21168;-65
2020/12/05 04:50:38;;;;;;;20.80;15.28;;;;;;;9.47;52.84;100878.81;1778868;80;21149;-64
2020/12/05 04:53:17;;;;;;;21.45;15.13;;;;;;;9.46;52.83;100895.19;1771822;80;21369;-65
2020/12/05 04:55:45;;;;;;;19.70;15.85;;;;;;;9.47;52.82;100888.93;1784737;80;21182;-64
2020/12/05 04:58:21;;;;;;;23.07;16.25;;;;;;;9.47;52.77;100881.47;1771685;80;22215;-64
2020/12/05 05:00:55;;;;;;;19.48;14.68;;;;;;;9.45;52.81;100889.05;1781968;80;21154;-65
2020/12/05 05:03:26;;;;;;;22.07;15.30;;;;;;;9.44;52.83;100880.77;1758958;80;21113;-63
2020/12/05 05:05:56;;;;;;;21.05;15.60;;;;;;;9.44;52.80;100882.55;1785872;80;21377;-64
2020/12/05 05:08:24;;;;;;;18.98;15.08;;;;;;;9.43;52.84;100890.17;1785033;80;21189;-64
2020/12/05 05:11:07;;;;;;;20.72;15.25;;;;;;;9.42;52.87;100898.59;1782560;80;21146;-64
2020/12/05 05:14:02;;;;;;;21.05;15.38;;;;;;;9.43;52.85;100890.17;1736905;80;21153;-64
2020/12/05 05:16:29;;;;;;;21.02;15.70;;;;;;;9.43;52.86;100893.66;1782297;78;21141;-63
2020/12/05 05:18:59;;;;;;;21.87;15.48;;;;;;;9.40;52.87;100890.42;1786216;80;21346;-65
2020/12/05 05:21:40;;;;;;;22.00;16.00;;;;;;;9.41;52.89;100902.73;1757562;80;21161;-65
2020/12/05 05:24:20;;;;;;;21.93;15.93;;;;;;;9.41;52.89;100886.81;1774799;80;21146;-65
2020/12/05 05:27:07;;;;;;;22.55;16.40;;;;;;;9.40;52.90;100893.91;1785071;78;21137;-66
2020/12/05 05:29:41;;;;;;;18.37;14.13;;;;;;;9.40;52.93;100893.08;1784280;78;21149;-65
2020/12/05 05:34:35;;;;;;;20.43;15.60;;;;;;;9.39;52.94;100896.72;1748124;81;21159;-64
2020/12/05 05:37:19;;;;;;;21.07;15.10;;;;;;;9.38;52.96;100890.55;1752699;81;21186;-64
2020/12/05 05:39:51;;;;;;;20.02;14.70;;;;;;;9.39;52.95;100900.20;1755355;81;21150;-65
2020/12/05 05:42:39;;;;;;;18.37;14.60;;;;;;;9.40;52.93;100894.40;1755447;81;21132;-64
2020/12/05 05:45:22;;;;;;;21.90;15.58;;;;;;;9.39;52.95;100895.39;1734800;82;21355;-65
2020/12/05 05:47:51;;;;;;;19.82;14.78;;;;;;;9.38;52.94;100897.18;1753474;81;21973;-64
2020/12/05 05:50:27;;;;;;;19.62;15.32;;;;;;;9.37;52.98;100900.82;1758411;81;21129;-65
2020/12/05 05:53:00;;;;;;;19.27;15.05;;;;;;;9.38;53.00;100920.22;1711537;83;21187;-64
2020/12/05 05:55:48;;;;;;;19.35;14.78;;;;;;;9.38;53.00;100906.95;1734947;82;22051;-64
2020/12/05 05:58:17;;;;;;;19.05;13.98;;;;;;;9.38;52.96;100902.48;1758399;81;22179;-64
2020/12/05 06:00:46;;;;;;;19.75;15.38;;;;;;;9.37;52.98;100914.58;1751207;81;21130;-64
2020/12/05 06:03:28;;;;;;;20.48;15.53;;;;;;;9.37;52.99;100918.55;1720950;83;21623;-66
2020/12/05 06:05:57;;;;;;;18.40;14.10;;;;;;;9.38;52.97;100914.42;1749387;81;21131;-65
2020/12/05 06:08:26;;;;;;;19.37;15.30;;;;;;;9.39;52.96;100912.63;1721353;83;21203;-65
2020/12/05 06:11:02;;;;;;;19.82;15.30;;;;;;;9.39;52.95;100908.66;1755291;81;21529;-64
2020/12/05 06:13:31;;;;;;;20.52;16.50;;;;;;;9.39;52.91;100910.81;1720644;83;21182;-65
2020/12/05 06:16:00;;;;;;;19.20;15.83;;;;;;;9.39;52.94;100917.44;1747026;81;21146;-65
2020/12/05 06:18:28;;;;;;;20.40;15.70;;;;;;;9.39;52.90;100921.42;1755526;81;21173;-65
2020/12/05 06:20:55;;;;;;;19.20;15.03;;;;;;;9.40;52.88;100928.88;1755161;81;21130;-65
2020/12/05 06:23:31;;;;;;;18.85;14.45;;;;;;;9.40;52.90;100956.73;1755156;81;21259;-65
2020/12/05 06:26:00;;;;;;;18.65;14.83;;;;;;;9.41;52.91;100917.31;1741635;81;21485;-65
2020/12/05 06:28:27;;;;;;;17.32;14.25;;;;;;;9.40;52.88;100920.92;1754728;81;21165;-64
2020/12/05 06:30:55;;;;;;;18.98;14.78;;;;;;;9.40;52.89;100931.53;1756275;80;21162;-64
2020/12/05 06:33:44;;;;;;;18.80;14.30;;;;;;;9.41;52.88;100932.73;1749420;80;21464;-65
2020/12/05 06:36:32;;;;;;;17.85;14.00;;;;;;;9.41;52.84;100938.53;1766363;81;21206;-65
2020/12/05 06:39:18;;;;;;;17.23;13.78;;;;;;;9.40;52.87;100916.95;1760550;81;21332;-65
2020/12/05 06:41:49;;;;;;;21.90;15.28;;;;;;;9.39;52.90;100932.03;1764841;81;21114;-64
2020/12/05 06:44:24;;;;;;;18.95;14.00;;;;;;;9.38;52.91;100933.48;1761921;80;21150;-64
2020/12/05 06:47:04;;;;;;;16.45;13.70;;;;;;;9.38;52.92;100951.55;1763727;80;21161;-65
2020/12/05 06:49:42;;;;;;;18.23;13.98;;;;;;;9.38;52.92;100955.53;1760557;81;21461;-63
2020/12/05 06:52:28;;;;;;;20.23;15.43;;;;;;;9.37;52.95;100953.86;1755205;79;21162;-62
2020/12/05 06:55:12;;;;;;;16.82;14.45;;;;;;;9.38;53.18;100962.65;1760441;79;21186;-63
2020/12/05 06:57:42;;;;;;;18.77;13.95;;;;;;;9.36;53.41;100956.64;1755883;81;21164;-64
2020/12/05 07:00:26;;;;;;;16.57;13.50;;;;;;;9.37;53.48;100962.31;1757463;81;21162;-63
2020/12/05 07:03:08;;;;;;;18.60;14.65;;;;;;;9.38;53.47;100974.59;1760325;81;22153;-63
2020/12/05 07:05:41;;;;;;;17.20;14.15;;;;;;;9.37;53.44;100957.01;1761743;81;21206;-64
2020/12/05 07:08:30;;;;;;;17.87;14.30;;;;;;;9.36;53.45;100956.14;1749231;81;21206;-66
2020/12/05 07:11:12;;;;;;;17.55;13.60;;;;;;;9.37;53.42;100957.84;1756720;81;21110;-64
2020/12/05 07:13:45;;;;;;;17.48;14.18;;;;;;;9.37;53.41;100965.80;1746867;81;21155;-65
2020/12/05 07:16:22;;;;;;;17.80;14.23;;;;;;;9.36;53.39;100965.42;1763461;79;21348;-64
2020/12/05 07:18:55;;;;;;;18.37;14.15;;;;;;;9.37;53.33;100966.29;1749685;79;21193;-63
2020/12/05 07:21:23;;;;;;;18.15;14.65;;;;;;;9.37;53.34;100969.78;1753397;79;21126;-63
2020/12/05 07:23:51;;;;;;;16.15;13.32;;;;;;;9.38;53.28;100979.89;1752828;81;21216;-62
2020/12/05 09:29:22;;;;;;;15.23;13.43;;;;;;;11.04;50.54;101016.30;1835011;77;28151;-78
2020/12/05 09:31:53;;;;;;;16.32;13.53;;;;;;;11.16;49.85;101013.37;1787156;79;21579;-78
2020/12/05 09:34:37;;;;;;;15.50;13.80;;;;;;;11.12;49.73;101016.44;1810426;79;28624;-79
2020/12/05 09:37:12;;;;;;;15.83;13.68;;;;;;;10.97;49.78;101010.69;1780560;80;21123;-78
2020/12/05 09:39:41;;;;;;;16.55;13.13;;;;;;;10.86;49.88;101012.18;1763933;80;21370;-71
2020/12/05 09:42:08;;;;;;;17.52;14.18;;;;;;;10.75;50.02;101019.28;1769125;80;21142;-70
2020/12/05 09:44:38;;;;;;;19.32;15.05;;;;;;;10.68;50.13;101009.34;1707084;81;21184;-70
2020/12/05 09:47:05;;;;;;;17.70;14.83;;;;;;;10.58;50.25;101011.48;1775366;80;21167;-71
2020/12/05 09:49:32;;;;;;;17.57;13.80;;;;;;;10.49;50.38;101020.77;1781695;80;21674;-71
2020/12/05 09:52:00;;;;;;;18.07;13.53;;;;;;;10.42;50.53;101003.22;1780261;80;21433;-72
2020/12/05 09:54:27;;;;;;;19.82;14.45;;;;;;;10.35;50.64;100996.76;1762560;80;21027;-71
2020/12/05 09:56:55;;;;;;;17.12;14.63;;;;;;;10.28;50.78;101007.07;1761803;80;21151;-72
2020/12/05 09:59:22;;;;;;;17.62;14.90;;;;;;;10.22;50.90;101000.48;1759757;80;21129;-70
2020/12/05 10:01:50;;;;;;;17.65;14.60;;;;;;;10.16;51.02;101012.11;1749227;80;21179;-71
2020/12/05 10:04:17;;;;;;;18.77;15.08;;;;;;;10.12;51.14;101016.02;1761979;80;21151;-74
2020/12/05 10:06:44;;;;;;;17.45;14.18;;;;;;;10.08;51.21;101007.97;1758188;80;21584;-74
2020/12/05 10:09:12;;;;;;;19.77;15.72;;;;;;;10.04;51.29;101016.68;1778497;80;21582;-74
2020/12/05 10:11:39;;;;;;;18.37;14.47;;;;;;;9.99;51.38;101014.44;1795109;79;21136;-75
2020/12/05 10:14:07;;;;;;;20.23;15.70;;;;;;;9.96;51.47;101027.96;1763553;79;21699;-72
2020/12/05 10:16:34;;;;;;;21.50;16.17;;;;;;;9.93;51.56;101029.58;1784499;79;21203;-74
2020/12/05 10:19:01;;;;;;;20.37;15.90;;;;;;;9.90;51.62;101040.44;1774687;80;21162;-73
2020/12/05 10:21:28;;;;;;;22.05;16.23;;;;;;;9.86;51.67;101035.05;1791060;80;21127;-73
2020/12/05 10:23:56;;;;;;;21.62;16.00;;;;;;;9.83;51.75;101040.61;1794582;79;21201;-72
2020/12/05 10:26:23;;;;;;;21.37;15.90;;;;;;;9.81;51.83;101034.13;1781754;80;21649;-73
2020/12/05 10:28:50;;;;;;;20.15;15.72;;;;;;;9.79;51.88;101029.44;1781289;79;21369;-72
2020/12/05 10:31:18;;;;;;;21.55;15.68;;;;;;;9.77;51.92;101048.63;1769434;80;21141;-71
2020/12/05 10:33:46;;;;;;;21.48;15.70;;;;;;;9.76;51.98;101029.69;1782035;79;21166;-71
2020/12/05 10:36:19;;;;;;;19.20;15.00;;;;;;;9.75;52.02;101038.61;1755664;80;21608;-71
2020/12/05 10:38:46;;;;;;;21.70;15.93;;;;;;;9.75;52.04;101031.14;1778919;79;27279;-70
2020/12/05 10:41:14;;;;;;;21.85;15.15;;;;;;;9.74;52.10;101032.96;1755604;80;21195;-70
2020/12/05 10:43:41;;;;;;;21.25;16.67;;;;;;;9.73;52.13;101034.41;1766488;80;21144;-71
2020/12/05 10:46:08;;;;;;;20.70;15.90;;;;;;;9.71;52.13;101034.53;1775406;80;21152;-72
2020/12/05 10:48:36;;;;;;;22.42;16.85;;;;;;;9.72;52.18;101030.92;1767130;80;21184;-70
2020/12/05 10:51:03;;;;;;;22.02;16.85;;;;;;;9.71;52.18;101037.19;1755110;80;21176;-70
2020/12/05 10:53:31;;;;;;;21.73;16.48;;;;;;;9.71;52.19;101050.95;1755121;80;22320;-71
2020/12/05 10:55:59;;;;;;;23.62;17.87;;;;;;;9.70;52.22;101050.61;1766114;80;21165;-72
2020/12/05 10:58:26;;;;;;;22.52;17.52;;;;;;;9.70;52.25;101050.61;1759569;79;21154;-71
2020/12/05 11:00:53;;;;;;;21.10;16.70;;;;;;;9.69;52.27;101059.53;1732899;80;21171;-72
2020/12/05 11:03:21;;;;;;;25.77;17.50;;;;;;;9.68;52.29;101045.44;1755131;80;21153;-71
2020/12/05 11:05:49;;;;;;;22.17;16.62;;;;;;;9.66;52.29;101051.36;1753439;80;22281;-71
2020/12/05 11:08:16;;;;;;;23.60;18.42;;;;;;;9.67;52.30;101054.34;1760017;80;21136;-73
2020/12/05 11:10:45;;;;;;;22.52;17.02;;;;;;;9.68;52.33;101063.14;1772519;80;21135;-71
2020/12/05 11:13:12;;;;;;;23.22;17.05;;;;;;;9.68;52.33;101068.45;1756700;80;21595;-72
2020/12/05 11:15:39;;;;;;;23.42;17.32;;;;;;;9.68;52.35;101056.05;1745314;81;21165;-70
2020/12/05 11:18:07;;;;;;;25.00;16.82;;;;;;;9.68;52.37;101058.70;1752494;81;21363;-71
2020/12/05 11:20:34;;;;;;;22.30;16.02;;;;;;;9.68;52.33;101064.01;1765903;80;21590;-71
2020/12/05 11:23:01;;;;;;;25.10;18.07;;;;;;;9.68;52.37;101059.16;1725588;81;21187;-70
2020/12/05 11:25:29;;;;;;;22.48;17.17;;;;;;;9.69;52.33;101060.86;1733120;80;21131;-71
2020/12/05 11:27:56;;;;;;;23.10;17.17;;;;;;;9.69;52.36;101067.49;1771094;80;21563;-72
2020/12/05 11:30:23;;;;;;;23.62;17.52;;;;;;;9.69;52.37;101061.69;1760555;80;21626;-71
2020/12/05 11:32:51;;;;;;;23.55;17.10;;;;;;;9.68;52.36;101069.77;1747043;81;21193;-71
2020/12/05 11:35:18;;;;;;;22.00;16.73;;;;;;;9.60;52.36;101059.81;1755172;81;21124;-70
2020/12/05 11:37:45;;;;;;;23.38;17.80;;;;;;;9.67;52.35;101078.23;1747715;80;21659;-73
2020/12/05 11:40:13;;;;;;;23.07;17.55;;;;;;;9.68;52.37;101070.64;1749678;80;21822;-71
2020/12/05 11:42:40;;;;;;;22.30;17.60;;;;;;;9.69;52.36;101078.11;1749684;80;21161;-70
2020/12/05 11:45:08;;;;;;;20.97;16.05;;;;;;;9.69;52.34;101079.44;1749652;80;21616;-71
2020/12/05 11:47:35;;;;;;;22.52;16.80;;;;;;;9.67;52.32;101080.88;1763126;80;21176;-72
2020/12/05 11:50:02;;;;;;;21.62;17.70;;;;;;;9.66;52.36;101087.17;1749806;80;21588;-71
2020/12/05 11:52:30;;;;;;;22.37;17.05;;;;;;;9.67;52.37;101086.69;1753980;80;21160;-72
2020/12/05 11:54:57;;;;;;;23.42;17.67;;;;;;;9.66;52.38;101087.17;1726867;81;21269;-71
2020/12/05 11:57:24;;;;;;;21.90;16.87;;;;;;;9.65;52.40;101096.09;1738481;81;21195;-71
2020/12/05 11:59:53;;;;;;;19.98;15.60;;;;;;;9.65;52.39;101086.80;1770884;80;21203;-72
2020/12/05 12:02:21;;;;;;;22.15;16.57;;;;;;;9.64;52.40;101088.63;1743516;81;21205;-70
2020/12/05 12:04:48;;;;;;;23.77;17.98;;;;;;;9.64;52.42;101090.45;1755054;81;21117;-72
2020/12/05 12:07:16;;;;;;;23.65;17.37;;;;;;;9.64;52.39;101087.80;1759684;80;23586;-71
2020/12/05 12:09:43;;;;;;;19.73;15.65;;;;;;;9.64;52.40;101089.12;1756365;80;21157;-71
2020/12/05 12:12:10;;;;;;;21.15;17.45;;;;;;;9.64;52.38;101082.00;1740663;81;21125;-70
2020/12/05 12:14:37;;;;;;;22.98;17.10;;;;;;;9.64;52.39;101085.97;1722681;81;21184;-70
2020/12/05 12:17:05;;;;;;;23.10;17.40;;;;;;;9.65;52.37;101086.80;1732901;80;21583;-70
2020/12/05 12:19:32;;;;;;;22.85;17.15;;;;;;;9.64;52.37;101088.63;1735065;80;21152;-70
2020/12/05 12:22:00;;;;;;;24.43;17.82;;;;;;;9.64;52.38;101084.65;1753165;81;21160;-70
2020/12/05 12:24:27;;;;;;;20.80;16.60;;;;;;;9.64;52.40;101103.22;1725587;81;21182;-71
2020/12/05 12:26:55;;;;;;;22.48;17.17;;;;;;;9.64;52.37;101085.97;1754979;80;21157;-71
2020/12/05 12:29:22;;;;;;;21.00;16.42;;;;;;;9.64;52.38;101094.43;1764272;80;21543;-71
2020/12/05 12:31:53;;;;;;;19.42;16.07;;;;;;;9.64;52.40;101101.06;1785717;80;21789;-72
2020/12/05 12:34:20;;;;;;;22.62;17.00;;;;;;;9.63;52.39;101089.58;1749168;81;21169;-71
2020/12/05 12:36:50;;;;;;;23.75;17.40;;;;;;;9.63;52.39;101099.36;1722322;82;21172;-71
2020/12/05 12:39:18;;;;;;;24.57;18.37;;;;;;;9.62;52.39;101093.72;1727932;82;21154;-70
2020/12/05 12:41:46;;;;;;;21.33;16.50;;;;;;;9.62;52.39;101097.20;1746541;82;21117;-72
2020/12/05 12:44:13;;;;;;;24.00;17.95;;;;;;;9.61;52.39;101099.98;1746482;81;21373;-72
2020/12/05 12:47:11;;;;;;;23.22;17.70;;;;;;;9.61;52.41;101096.83;1740552;82;21646;-70
2020/12/05 12:49:25;;;;;;;21.48;17.10;;;;;;;9.61;52.39;101098.16;1744202;82;21147;-71
2020/12/05 12:51:53;;;;;;;23.98;18.00;;;;;;;9.60;52.38;101104.91;1746457;82;21147;-72
2020/12/05 12:54:20;;;;;;;23.30;17.75;;;;;;;9.59;52.40;101109.88;1746458;82;21539;-71
2020/12/05 12:56:48;;;;;;;23.73;18.35;;;;;;;9.58;52.38;101106.39;1746457;82;21190;-71
2020/12/05 12:59:16;;;;;;;22.65;17.35;;;;;;;9.59;52.41;101111.20;1730124;82;21175;-71
2020/12/05 13:01:43;;;;;;;23.20;18.23;;;;;;;9.58;52.41;101120.12;1746418;82;21179;-71
2020/12/05 13:04:12;;;;;;;23.98;17.87;;;;;;;9.57;52.42;101123.27;1744639;82;21198;-71
2020/12/05 13:06:39;;;;;;;22.50;17.00;;;;;;;9.57;52.42;101125.09;1715223;83;21563;-71
2020/12/05 13:09:06;;;;;;;22.65;17.60;;;;;;;9.56;52.44;101119.41;1727552;83;21129;-70
2020/12/05 13:11:34;;;;;;;26.05;18.62;;;;;;;9.57;52.42;101126.41;1746312;82;21183;-72
2020/12/05 13:14:01;;;;;;;21.75;16.75;;;;;;;9.57;52.40;101132.55;1734213;82;21694;-72
2020/12/05 13:16:28;;;;;;;19.30;15.70;;;;;;;9.56;52.43;101136.66;1743167;82;21112;-72
2020/12/05 13:18:55;;;;;;;21.10;16.30;;;;;;;9.55;52.43;101133.66;1746474;82;21155;-72
2020/12/05 13:21:22;;;;;;;24.18;17.87;;;;;;;9.54;52.42;101134.16;1746597;82;21325;-70
2020/12/05 13:23:50;;;;;;;24.15;17.75;;;;;;;9.55;52.44;101141.62;1746433;82;21588;-70
2020/12/05 13:26:21;;;;;;;24.00;17.85;;;;;;;9.55;52.43;101128.35;1746490;82;21635;-71
2020/12/05 13:28:49;;;;;;;24.00;17.35;;;;;;;9.55;52.41;101133.66;1716024;82;21247;-72
2020/12/05 13:31:16;;;;;;;21.07;16.62;;;;;;;9.54;52.40;101129.31;1744320;82;21157;-70
2020/12/05 13:33:44;;;;;;;20.95;16.40;;;;;;;9.54;52.40;101137.27;1746046;81;21257;-70
2020/12/05 13:36:11;;;;;;;21.97;17.62;;;;;;;9.55;52.43;101134.98;1758166;81;21208;-70